Time;durP1;ratioP1;P1;durP2;ratioP2;P2;SDS_P1;SDS_P2;PMS_P1;PMS_P2;Temp;Humidity;BMP_temperature;BMP_pressure;BME280_temperature;BME280_humidity;BME280_pressure;Samples;Min_cycle;Max_cycle;Signal;HPM_P1;HPM_P2
2023/08/24 00:01:16;;;;;;;;;;;;;;;29.68;59.60;101531.52;106787;1269;25375;-51
2023/08/24 00:03:44;;;;;;;;;;;;;;;29.64;59.78;101535.50;106819;1266;25353;-51
2023/08/24 00:06:11;;;;;;;;;;;;;;;29.60;60.02;101535.79;106805;1270;25403;-50
2023/08/24 00:08:38;;;;;;;;;;;;;;;29.58;60.28;101538.89;106806;1270;25376;-51
2023/08/24 00:11:05;;;;;;;;;;;;;;;29.56;60.38;101538.50;106834;1272;25379;-51
2023/08/24 00:13:32;;;;;;;;;;;;;;;29.57;60.46;101544.52;106886;1270;25296;-51
2023/08/24 00:15:59;;;;;;;;;;;;;;;29.58;60.65;101547.22;106825;1263;25376;-51
2023/08/24 00:18:26;;;;;;;;;;;;;;;29.61;60.68;101549.52;106851;1260;25303;-51
2023/08/24 00:20:53;;;;;;;;;;;;;;;29.64;60.73;101542.83;106808;1269;25378;-51
2023/08/24 00:23:20;;;;;;;;;;;;;;;29.66;61.02;101546.00;106666;1261;25382;-51
2023/08/24 00:25:46;;;;;;;;;;;;;;;29.68;60.92;101550.48;106903;1268;25316;-51
2023/08/24 00:28:13;;;;;;;;;;;;;;;29.71;61.06;101546.30;106836;1269;25334;-51
2023/08/24 00:30:40;;;;;;;;;;;;;;;29.73;60.98;101548.23;106654;1271;22507;-51
2023/08/24 00:33:07;;;;;;;;;;;;;;;29.74;61.01;101546.73;106788;1273;25330;-51
2023/08/24 00:35:35;;;;;;;;;;;;;;;29.75;61.18;101544.34;106356;1262;366171;-51
2023/08/24 00:38:02;;;;;;;;;;;;;;;29.75;61.26;101541.30;106834;1270;23301;-51
2023/08/24 00:40:29;;;;;;;;;;;;;;;29.76;61.19;101538.52;106731;1262;25308;-52
2023/08/24 00:42:56;;;;;;;;;;;;;;;29.77;61.18;101533.97;106767;1270;22512;-51
2023/08/24 00:45:23;;;;;;;;;;;;;;;29.78;61.10;101534.07;106709;1272;25337;-51
2023/08/24 00:47:51;;;;;;;;;;;;;;;29.81;61.06;101533.75;106832;1273;25552;-51
2023/08/24 00:50:19;;;;;;;;;;;;;;;29.82;60.81;101531.70;106540;1269;22521;-51
2023/08/24 00:52:46;;;;;;;;;;;;;;;29.84;60.91;101527.56;106798;1271;25552;-51
2023/08/24 00:55:12;;;;;;;;;;;;;;;29.86;60.74;101524.23;106651;1273;25393;-51
2023/08/24 00:57:39;;;;;;;;;;;;;;;29.87;61.00;101525.72;106766;1270;22521;-51
2023/08/24 01:00:10;;;;;;;;;;;;;;;29.87;61.18;101525.86;106714;1270;25770;-51
2023/08/24 01:02:37;;;;;;;;;;;;;;;29.88;61.11;101526.71;106716;1275;25341;-51
2023/08/24 01:05:04;;;;;;;;;;;;;;;29.88;60.99;101524.18;106764;1271;25307;-51
2023/08/24 01:07:32;;;;;;;;;;;;;;;29.89;61.01;101520.19;106737;1270;22526;-51
2023/08/24 01:09:59;;;;;;;;;;;;;;;29.89;61.12;101520.87;106461;1272;25535;-51
2023/08/24 01:12:45;;;;;;;;;;;;;;;29.90;61.09;101524.52;106673;1269;25469;-51
2023/08/24 01:15:24;;;;;;;;;;;;;;;29.90;61.05;101526.13;106701;1272;22564;-51
2023/08/24 01:17:51;;;;;;;;;;;;;;;29.88;61.20;101532.73;106720;1269;25469;-51
2023/08/24 01:20:18;;;;;;;;;;;;;;;29.86;61.45;101543.66;106716;1269;25299;-51
2023/08/24 01:23:04;;;;;;;;;;;;;;;29.84;61.87;101550.29;106368;1273;25321;-51
2023/08/24 01:25:34;;;;;;;;;;;;;;;29.82;62.08;101556.88;106818;1265;25324;-51
2023/08/24 01:28:01;;;;;;;;;;;;;;;29.84;62.42;101553.20;106864;1273;25469;-51
2023/08/24 01:30:28;;;;;;;;;;;;;;;29.85;62.46;101544.31;106841;1269;25334;-51
2023/08/24 01:32:55;;;;;;;;;;;;;;;29.86;62.60;101542.48;106760;1271;25396;-51
2023/08/24 01:35:22;;;;;;;;;;;;;;;29.85;62.62;101538.75;106804;1275;25325;-51
2023/08/24 01:37:50;;;;;;;;;;;;;;;29.85;62.63;101538.73;106842;1266;22616;-52
2023/08/24 01:40:26;;;;;;;;;;;;;;;29.87;62.44;101536.49;106694;1271;24279;-51
2023/08/24 01:42:56;;;;;;;;;;;;;;;29.88;62.45;101535.98;106884;1268;24665;-51
2023/08/24 01:45:24;;;;;;;;;;;;;;;29.90;62.49;101534.75;106842;1266;24262;-51
2023/08/24 01:47:51;;;;;;;;;;;;;;;29.90;62.33;101532.40;106818;1259;25302;-51
2023/08/24 01:50:19;;;;;;;;;;;;;;;29.91;62.40;101533.95;106834;1269;25391;-51
2023/08/24 01:52:45;;;;;;;;;;;;;;;29.91;62.41;101533.39;106766;1271;25365;-51
2023/08/24 01:55:13;;;;;;;;;;;;;;;29.91;62.11;101529.77;106907;1273;25330;-51
2023/08/24 01:57:41;;;;;;;;;;;;;;;29.91;61.51;101526.20;106607;1276;24396;-51
2023/08/24 02:00:09;;;;;;;;;;;;;;;29.91;61.10;101523.02;106351;1272;25337;-51
2023/08/24 02:02:45;;;;;;;;;;;;;;;29.88;60.58;101522.54;106510;1275;25368;-52
2023/08/24 02:05:12;;;;;;;;;;;;;;;29.87;60.39;101527.31;106491;1276;25837;-52
2023/08/24 02:07:42;;;;;;;;;;;;;;;29.85;60.06;101530.73;106422;1274;25585;-52
2023/08/24 02:10:09;;;;;;;;;;;;;;;29.83;59.52;101531.13;106324;1274;22631;-53
2023/08/24 02:12:36;;;;;;;;;;;;;;;29.79;59.03;101532.15;106486;1278;25454;-52
2023/08/24 02:15:03;;;;;;;;;;;;;;;29.75;58.27;101524.29;106491;1268;25326;-52
2023/08/24 02:17:30;;;;;;;;;;;;;;;29.70;56.71;101528.98;106638;1264;25475;-51
2023/08/24 02:19:57;;;;;;;;;;;;;;;29.67;55.23;101530.39;106483;1261;25412;-51
2023/08/24 02:22:24;;;;;;;;;;;;;;;29.62;54.55;101537.41;106308;1277;25324;-51
2023/08/24 02:24:51;;;;;;;;;;;;;;;29.58;54.75;101545.41;106289;1273;25388;-51
2023/08/24 02:27:18;;;;;;;;;;;;;;;29.55;54.63;101551.46;106372;1281;25321;-52
2023/08/24 02:29:45;;;;;;;;;;;;;;;29.51;54.67;101553.08;106665;1273;25344;-53
2023/08/24 02:32:14;;;;;;;;;;;;;;;29.47;54.71;101553.25;106525;1273;25354;-52
2023/08/24 02:34:42;;;;;;;;;;;;;;;29.44;54.45;101552.30;106741;1268;23400;-52
2023/08/24 02:37:09;;;;;;;;;;;;;;;29.40;54.35;101552.77;106458;1269;24224;-52
2023/08/24 02:39:36;;;;;;;;;;;;;;;29.38;54.53;101559.08;106709;1270;23413;-52
2023/08/24 02:42:03;;;;;;;;;;;;;;;29.36;54.23;101561.42;106555;1267;22529;-53
2023/08/24 02:44:31;;;;;;;;;;;;;;;29.34;54.35;101558.20;106611;1260;25513;-52
2023/08/24 02:46:58;;;;;;;;;;;;;;;29.31;54.50;101549.52;106677;1266;25296;-51
2023/08/24 02:49:25;;;;;;;;;;;;;;;29.30;54.58;101552.84;106916;1258;25376;-51
2023/08/24 02:51:52;;;;;;;;;;;;;;;29.28;54.51;101556.77;106697;1270;25305;-51
2023/08/24 02:54:19;;;;;;;;;;;;;;;29.27;54.79;101553.96;106318;1270;26473;-51
2023/08/24 02:56:46;;;;;;;;;;;;;;;29.26;54.64;101551.36;106618;1277;25372;-51
2023/08/24 02:59:12;;;;;;;;;;;;;;;29.26;54.76;101545.48;106706;1276;25442;-52
2023/08/24 03:01:41;;;;;;;;;;;;;;;29.26;54.49;101544.44;106605;1269;25315;-51
2023/08/24 03:04:09;;;;;;;;;;;;;;;29.25;54.31;101543.23;106747;1270;23147;-51
2023/08/24 03:06:36;;;;;;;;;;;;;;;29.25;54.35;101544.88;106679;1267;25366;-52
2023/08/24 03:09:06;;;;;;;;;;;;;;;29.25;54.69;101540.23;106793;1269;25333;-52
2023/08/24 03:11:33;;;;;;;;;;;;;;;29.24;55.30;101539.02;106778;1267;25447;-51
2023/08/24 03:14:00;;;;;;;;;;;;;;;29.24;55.66;101538.02;106718;1270;25334;-52
2023/08/24 03:16:27;;;;;;;;;;;;;;;29.22;55.98;101538.50;106737;1277;25381;-51
2023/08/24 03:18:54;;;;;;;;;;;;;;;29.22;56.14;101540.30;106869;1267;25350;-51
2023/08/24 03:21:21;;;;;;;;;;;;;;;29.22;56.07;101538.86;106720;1264;25313;-51
2023/08/24 03:23:48;;;;;;;;;;;;;;;29.22;56.01;101533.17;106773;1269;25315;-51
2023/08/24 03:26:20;;;;;;;;;;;;;;;29.22;56.10;101533.14;106553;1254;23410;-51
2023/08/24 03:28:47;;;;;;;;;;;;;;;29.22;56.01;101536.17;106776;1270;25293;-51
2023/08/24 03:31:13;;;;;;;;;;;;;;;29.23;55.88;101536.69;106731;1267;25420;-51
2023/08/24 03:33:41;;;;;;;;;;;;;;;29.23;55.92;101537.23;106796;1257;25535;-51
2023/08/24 03:36:08;;;;;;;;;;;;;;;29.23;56.04;101537.19;106773;1270;25330;-51
2023/08/24 03:38:35;;;;;;;;;;;;;;;29.23;56.08;101534.02;106717;1254;25353;-51
2023/08/24 03:41:05;;;;;;;;;;;;;;;29.23;55.84;101532.40;106846;1270;24346;-51
2023/08/24 03:43:34;;;;;;;;;;;;;;;29.22;55.29;101527.61;106807;1267;25256;-51
2023/08/24 03:46:02;;;;;;;;;;;;;;;29.23;55.46;101522.70;106843;1264;25557;-51
2023/08/24 03:48:29;;;;;;;;;;;;;;;29.23;55.31;101521.06;106835;1270;25343;-51
2023/08/24 03:50:57;;;;;;;;;;;;;;;29.24;55.47;101521.55;106817;1260;23311;-52
2023/08/24 03:53:24;;;;;;;;;;;;;;;29.24;55.56;101525.45;106769;1267;25324;-51
2023/08/24 03:55:51;;;;;;;;;;;;;;;29.25;55.48;101527.02;106864;1271;25334;-50
2023/08/24 03:58:19;;;;;;;;;;;;;;;29.26;55.48;101534.45;106747;1270;25455;-52
2023/08/24 04:00:46;;;;;;;;;;;;;;;29.26;55.49;101535.69;106890;1264;24193;-51
2023/08/24 04:03:13;;;;;;;;;;;;;;;29.27;55.57;101537.05;106688;1270;25321;-51
2023/08/24 04:05:40;;;;;;;;;;;;;;;29.27;55.49;101537.87;106636;1270;25316;-51
2023/08/24 04:08:07;;;;;;;;;;;;;;;29.28;55.69;101538.19;106792;1261;25341;-51
2023/08/24 04:10:35;;;;;;;;;;;;;;;29.29;55.50;101535.95;106461;1270;25369;-51
2023/08/24 04:13:02;;;;;;;;;;;;;;;29.30;55.42;101535.34;106823;1262;25390;-51
2023/08/24 04:15:29;;;;;;;;;;;;;;;29.31;55.41;101536.47;106773;1263;22515;-52
2023/08/24 04:17:56;;;;;;;;;;;;;;;29.31;55.41;101538.94;106831;1257;25330;-50
2023/08/24 04:20:23;;;;;;;;;;;;;;;29.33;55.32;101540.57;106946;1270;25393;-51
2023/08/24 04:22:50;;;;;;;;;;;;;;;29.35;55.47;101541.31;106755;1258;25419;-51
2023/08/24 04:25:17;;;;;;;;;;;;;;;29.37;55.43;101545.39;106835;1270;25362;-51
2023/08/24 04:27:44;;;;;;;;;;;;;;;29.39;55.60;101548.47;106770;1270;25340;-51
2023/08/24 04:30:11;;;;;;;;;;;;;;;29.41;55.84;101547.58;106803;1258;25462;-51
2023/08/24 04:32:38;;;;;;;;;;;;;;;29.43;56.02;101546.27;106776;1267;24339;-52
2023/08/24 04:35:06;;;;;;;;;;;;;;;29.46;56.31;101546.57;106753;1264;25316;-52
2023/08/24 04:37:33;;;;;;;;;;;;;;;29.50;56.64;101546.23;106815;1270;25337;-52
2023/08/24 04:40:00;;;;;;;;;;;;;;;29.53;56.71;101545.96;106937;1267;24425;-52
2023/08/24 04:42:26;;;;;;;;;;;;;;;29.55;56.64;101546.85;106824;1261;25356;-52
2023/08/24 04:44:53;;;;;;;;;;;;;;;29.56;56.49;101549.89;106859;1268;23221;-52
2023/08/24 04:47:20;;;;;;;;;;;;;;;29.56;56.52;101548.84;106663;1260;25476;-52
2023/08/24 04:49:47;;;;;;;;;;;;;;;29.57;56.77;101553.09;106788;1270;25296;-52
2023/08/24 04:52:14;;;;;;;;;;;;;;;29.58;56.66;101554.44;106744;1270;25373;-52
2023/08/24 04:54:41;;;;;;;;;;;;;;;29.59;56.77;101556.84;106748;1267;25305;-52
2023/08/24 04:57:08;;;;;;;;;;;;;;;29.61;56.74;101557.14;106565;1270;25413;-51
2023/08/24 04:59:35;;;;;;;;;;;;;;;29.63;56.17;101557.36;106781;1267;25370;-51
2023/08/24 05:02:02;;;;;;;;;;;;;;;29.65;55.83;101559.73;106674;1270;25354;-51
2023/08/24 05:04:29;;;;;;;;;;;;;;;29.66;55.72;101560.83;106771;1270;25324;-51
2023/08/24 05:06:56;;;;;;;;;;;;;;;29.69;55.28;101558.80;106722;1267;25306;-51
2023/08/24 05:09:23;;;;;;;;;;;;;;;29.72;54.90;101560.48;106879;1270;25325;-52
2023/08/24 05:11:50;;;;;;;;;;;;;;;29.75;54.59;101564.71;106825;1264;25360;-52
2023/08/24 05:14:17;;;;;;;;;;;;;;;29.79;54.37;101563.27;106851;1267;25303;-51
2023/08/24 05:16:44;;;;;;;;;;;;;;;29.82;54.13;101564.77;106822;1267;25306;-51
2023/08/24 05:19:11;;;;;;;;;;;;;;;29.84;53.65;101565.29;106812;1268;25380;-51
2023/08/24 05:21:37;;;;;;;;;;;;;;;29.86;53.40;101562.65;106903;1270;23840;-51
2023/08/24 05:24:04;;;;;;;;;;;;;;;29.90;53.33;101558.76;106760;1259;25391;-51
2023/08/24 05:26:32;;;;;;;;;;;;;;;29.94;53.32;101557.13;106833;1269;25393;-50
2023/08/24 05:28:58;;;;;;;;;;;;;;;29.97;53.33;101555.34;106761;1260;25316;-51
2023/08/24 05:31:25;;;;;;;;;;;;;;;30.01;52.93;101554.81;106741;1270;25392;-52
2023/08/24 05:33:52;;;;;;;;;;;;;;;30.06;52.65;101555.45;106873;1265;22615;-50
2023/08/24 05:36:19;;;;;;;;;;;;;;;30.12;52.36;101555.63;106865;1267;25353;-51
2023/08/24 05:38:46;;;;;;;;;;;;;;;30.18;51.63;101554.67;106789;1256;25456;-52
2023/08/24 05:41:31;;;;;;;;;;;;;;;30.24;51.04;101553.23;106946;1267;25363;-51
2023/08/24 05:43:58;;;;;;;;;;;;;;;30.30;50.35;101553.18;106783;1264;25456;-51
2023/08/24 05:46:25;;;;;;;;;;;;;;;30.37;50.09;101553.84;106604;1267;25358;-53
2023/08/24 05:48:52;;;;;;;;;;;;;;;30.42;49.68;101551.38;106641;1270;22503;-51
2023/08/24 05:51:19;;;;;;;;;;;;;;;30.46;49.61;101553.19;106781;1267;25347;-51
2023/08/24 05:53:46;;;;;;;;;;;;;;;30.47;49.58;101550.55;106795;1260;25413;-50
2023/08/24 05:56:12;;;;;;;;;;;;;;;30.47;48.83;101551.60;106881;1259;25464;-51
2023/08/24 05:58:39;;;;;;;;;;;;;;;30.47;48.62;101549.14;106875;1270;25326;-51
2023/08/24 06:01:06;;;;;;;;;;;;;;;30.46;48.83;101547.61;106786;1265;25381;-51
2023/08/24 06:03:33;;;;;;;;;;;;;;;30.45;48.88;101550.19;106802;1270;25316;-51
2023/08/24 06:06:02;;;;;;;;;;;;;;;30.44;48.92;101553.52;106735;1268;25323;-51
2023/08/24 06:08:29;;;;;;;;;;;;;;;30.43;49.41;101552.56;106694;1266;26478;-51
2023/08/24 06:10:57;;;;;;;;;;;;;;;30.45;50.37;101554.14;106426;1270;25383;-51
2023/08/24 06:13:24;;;;;;;;;;;;;;;30.50;50.62;101554.04;106554;1267;25455;-51
2023/08/24 06:15:50;;;;;;;;;;;;;;;30.59;50.52;101556.48;106820;1256;25215;-52
2023/08/24 06:18:17;;;;;;;;;;;;;;;30.68;50.46;101553.67;106715;1260;25452;-51
2023/08/24 06:20:45;;;;;;;;;;;;;;;30.77;50.66;101553.30;106833;1270;25330;-52
2023/08/24 06:23:15;;;;;;;;;;;;;;;30.87;51.12;101553.84;106842;1267;24378;-51
2023/08/24 06:25:42;;;;;;;;;;;;;;;30.96;51.00;101556.73;106869;1256;25372;-51
2023/08/24 06:28:09;;;;;;;;;;;;;;;31.03;51.18;101559.80;106887;1267;25313;-51
2023/08/24 06:30:43;;;;;;;;;;;;;;;31.07;51.22;101554.73;106789;1261;25321;-52
2023/08/24 06:33:13;;;;;;;;;;;;;;;31.12;51.11;101557.29;106760;1261;25351;-51
2023/08/24 06:35:40;;;;;;;;;;;;;;;31.21;51.24;101558.25;106816;1267;25392;-52
2023/08/24 06:38:07;;;;;;;;;;;;;;;31.33;51.35;101558.63;106790;1267;25344;-51
2023/08/24 06:40:34;;;;;;;;;;;;;;;31.52;51.52;101562.27;106734;1270;25306;-51
2023/08/24 06:43:00;;;;;;;;;;;;;;;31.71;51.44;101565.02;106813;1261;25305;-52
2023/08/24 06:45:28;;;;;;;;;;;;;;;31.92;51.41;101564.92;106768;1264;25316;-52
2023/08/24 06:47:55;;;;;;;;;;;;;;;32.06;51.39;101568.16;106754;1271;25378;-51
2023/08/24 06:50:22;;;;;;;;;;;;;;;32.16;51.26;101568.27;106918;1270;25305;-51
2023/08/24 06:52:49;;;;;;;;;;;;;;;32.24;51.28;101572.17;106777;1261;25393;-52
2023/08/24 06:55:16;;;;;;;;;;;;;;;32.28;51.30;101571.52;106826;1270;25325;-51
2023/08/24 06:57:47;;;;;;;;;;;;;;;32.32;51.34;101571.17;106802;1255;25340;-52
2023/08/24 07:00:15;;;;;;;;;;;;;;;32.37;51.35;101572.77;106793;1259;22518;-52
2023/08/24 07:02:42;;;;;;;;;;;;;;;32.45;51.02;101578.13;106751;1275;25291;-52
2023/08/24 07:05:09;;;;;;;;;;;;;;;32.52;50.52;101579.02;106755;1261;25456;-52
2023/08/24 07:07:36;;;;;;;;;;;;;;;32.58;50.40;101580.75;106776;1257;25483;-52
2023/08/24 07:10:04;;;;;;;;;;;;;;;32.60;50.24;101580.48;106797;1267;25344;-51
2023/08/24 07:12:31;;;;;;;;;;;;;;;32.61;50.35;101582.16;106544;1275;25315;-52
2023/08/24 07:14:57;;;;;;;;;;;;;;;32.62;50.33;101585.13;106844;1261;25306;-52
2023/08/24 07:17:24;;;;;;;;;;;;;;;32.65;50.46;101584.34;106771;1260;25344;-51
2023/08/24 07:19:52;;;;;;;;;;;;;;;32.66;50.55;101587.05;106824;1267;25302;-51
2023/08/24 07:22:19;;;;;;;;;;;;;;;32.68;50.73;101588.51;106858;1270;25354;-52
2023/08/24 07:24:46;;;;;;;;;;;;;;;32.70;50.83;101589.03;106910;1259;25313;-52
2023/08/24 07:27:13;;;;;;;;;;;;;;;32.68;51.20;101593.86;106858;1267;25331;-51
2023/08/24 07:29:40;;;;;;;;;;;;;;;32.67;51.39;101594.90;106777;1256;25344;-52
2023/08/24 07:32:06;;;;;;;;;;;;;;;32.66;51.67;101594.42;106815;1268;25305;-51
2023/08/24 07:34:34;;;;;;;;;;;;;;;32.63;51.96;101595.31;106863;1259;25382;-52
2023/08/24 07:37:00;;;;;;;;;;;;;;;32.59;52.18;101601.98;106735;1267;25309;-51
2023/08/24 07:39:27;;;;;;;;;;;;;;;32.55;52.44;101601.87;106882;1260;25306;-51
2023/08/24 07:41:54;;;;;;;;;;;;;;;32.50;52.44;101600.45;106663;1267;25306;-51
2023/08/24 07:44:21;;;;;;;;;;;;;;;32.44;52.52;101597.40;106773;1259;25364;-51
2023/08/24 07:46:48;;;;;;;;;;;;;;;32.39;52.80;101593.96;106785;1272;25347;-51
2023/08/24 07:49:15;;;;;;;;;;;;;;;32.34;52.97;101597.52;106784;1267;23202;-51
2023/08/24 07:51:47;;;;;;;;;;;;;;;32.31;53.04;101594.40;106890;1259;25278;-51
2023/08/24 07:54:14;;;;;;;;;;;;;;;32.30;53.07;101594.46;106779;1268;25350;-51
2023/08/24 07:56:42;;;;;;;;;;;;;;;32.30;53.01;101594.48;106809;1267;25329;-52
2023/08/24 07:59:08;;;;;;;;;;;;;;;32.31;52.86;101592.93;106868;1256;25405;-51
2023/08/24 08:01:35;;;;;;;;;;;;;;;32.32;52.86;101594.34;106816;1267;25315;-51
2023/08/24 08:04:02;;;;;;;;;;;;;;;32.33;53.08;101595.69;106731;1270;25466;-51
2023/08/24 08:06:29;;;;;;;;;;;;;;;32.33;53.18;101594.02;106892;1256;25306;-52
2023/08/24 08:08:57;;;;;;;;;;;;;;;32.34;53.22;101594.77;106704;1270;25363;-51
2023/08/24 08:11:24;;;;;;;;;;;;;;;32.34;53.07;101592.27;106745;1266;25356;-51
2023/08/24 08:13:51;;;;;;;;;;;;;;;32.35;53.09;101590.03;106828;1267;25389;-51
2023/08/24 08:16:18;;;;;;;;;;;;;;;32.36;53.10;101592.27;106777;1269;25326;-51
2023/08/24 08:18:45;;;;;;;;;;;;;;;32.37;53.04;101591.96;106864;1256;25303;-51
2023/08/24 08:21:17;;;;;;;;;;;;;;;32.39;53.18;101590.73;106777;1267;25358;-51
2023/08/24 08:23:48;;;;;;;;;;;;;;;32.42;53.33;101592.56;106791;1268;25350;-51
2023/08/24 08:26:15;;;;;;;;;;;;;;;32.48;53.58;101590.05;106876;1259;25340;-51
2023/08/24 08:28:42;;;;;;;;;;;;;;;32.57;53.81;101588.04;106789;1267;25363;-52
2023/08/24 08:31:09;;;;;;;;;;;;;;;32.67;53.71;101584.80;106823;1262;22527;-50
2023/08/24 08:33:37;;;;;;;;;;;;;;;32.78;53.38;101584.79;106692;1273;25316;-50
2023/08/24 08:36:04;;;;;;;;;;;;;;;32.86;52.74;101581.17;106720;1267;25371;-51
2023/08/24 08:38:31;;;;;;;;;;;;;;;32.94;52.46;101579.19;106774;1265;25467;-51
2023/08/24 08:41:01;;;;;;;;;;;;;;;33.00;52.59;101580.20;106767;1268;25306;-52
2023/08/24 08:43:30;;;;;;;;;;;;;;;33.06;52.42;101580.91;106854;1263;22584;-52
2023/08/24 08:45:56;;;;;;;;;;;;;;;33.13;52.11;101577.69;106902;1268;22583;-52
2023/08/24 08:48:23;;;;;;;;;;;;;;;33.22;51.74;101577.42;106830;1267;25316;-52
2023/08/24 08:50:51;;;;;;;;;;;;;;;33.31;51.54;101578.42;106694;1266;23865;-52
2023/08/24 08:53:20;;;;;;;;;;;;;;;33.41;51.35;101574.38;106774;1261;25315;-51
2023/08/24 08:55:46;;;;;;;;;;;;;;;33.51;51.11;101576.23;106896;1256;24173;-51
2023/08/24 08:58:14;;;;;;;;;;;;;;;33.61;50.80;101572.80;106820;1263;25357;-51
2023/08/24 09:00:41;;;;;;;;;;;;;;;33.72;50.57;101568.64;106734;1259;25316;-53
2023/08/24 09:03:08;;;;;;;;;;;;;;;33.82;50.35;101571.98;106828;1268;22514;-51
2023/08/24 09:05:36;;;;;;;;;;;;;;;33.93;49.98;101572.25;106836;1266;25344;-51
2023/08/24 09:08:03;;;;;;;;;;;;;;;34.02;49.51;101569.80;106905;1268;25364;-51
2023/08/24 09:10:31;;;;;;;;;;;;;;;34.11;49.20;101570.64;106837;1259;22599;-52
2023/08/24 09:12:58;;;;;;;;;;;;;;;34.20;48.76;101570.80;106752;1254;25344;-51
2023/08/24 09:15:26;;;;;;;;;;;;;;;34.27;48.12;101571.25;106746;1259;25347;-53
2023/08/24 09:17:56;;;;;;;;;;;;;;;34.33;47.40;101573.41;106679;1256;25217;-53
2023/08/24 09:20:23;;;;;;;;;;;;;;;34.36;47.08;101570.94;106821;1259;25438;-52
2023/08/24 09:22:54;;;;;;;;;;;;;;;34.36;46.80;101570.61;106654;1267;25500;-51
2023/08/24 09:25:21;;;;;;;;;;;;;;;34.33;47.28;101569.70;106637;1260;22524;-52
2023/08/24 09:27:55;;;;;;;;;;;;;;;34.29;47.82;101566.45;106808;1257;24191;-52
2023/08/24 09:30:22;;;;;;;;;;;;;;;34.28;48.09;101568.44;106788;1267;25363;-52
2023/08/24 09:32:49;;;;;;;;;;;;;;;34.27;47.92;101566.55;106755;1259;25316;-51
2023/08/24 09:35:16;;;;;;;;;;;;;;;34.24;47.97;101565.45;106792;1263;25210;-52
2023/08/24 09:37:45;;;;;;;;;;;;;;;34.21;47.97;101565.94;106599;1268;25380;-52
2023/08/24 09:40:12;;;;;;;;;;;;;;;34.19;47.73;101566.14;106880;1267;25316;-52
2023/08/24 09:42:43;;;;;;;;;;;;;;;34.17;47.73;101559.58;106481;1263;25316;-52
2023/08/24 09:45:13;;;;;;;;;;;;;;;34.14;47.81;101558.45;106715;1267;22521;-51
2023/08/24 09:47:45;;;;;;;;;;;;;;;34.12;48.02;101552.77;106816;1258;24183;-51
2023/08/24 09:50:12;;;;;;;;;;;;;;;34.10;47.98;101547.00;106886;1268;22626;-50
2023/08/24 09:52:38;;;;;;;;;;;;;;;34.07;47.86;101548.00;106682;1270;23905;-51
2023/08/24 09:55:06;;;;;;;;;;;;;;;34.05;48.01;101544.11;106785;1269;25459;-51
2023/08/24 09:57:41;;;;;;;;;;;;;;;34.03;48.35;101543.28;106850;1259;25356;-52
2023/08/24 10:00:14;;;;;;;;;;;;;;;34.02;48.50;101542.51;106721;1267;25356;-52
2023/08/24 10:02:59;;;;;;;;;;;;;;;34.03;48.57;101544.02;106839;1267;25316;-51
2023/08/24 10:05:26;;;;;;;;;;;;;;;34.04;48.48;101546.72;106807;1261;25269;-51
2023/08/24 10:07:56;;;;;;;;;;;;;;;34.08;48.49;101545.64;106745;1268;25325;-51
2023/08/24 10:10:24;;;;;;;;;;;;;;;34.11;48.27;101537.84;106907;1263;25523;-51
2023/08/24 10:12:53;;;;;;;;;;;;;;;34.16;47.97;101536.45;106679;1259;25394;-50
2023/08/24 10:15:23;;;;;;;;;;;;;;;34.21;48.02;101535.20;106941;1266;25326;-51
2023/08/24 10:17:50;;;;;;;;;;;;;;;34.24;47.88;101534.05;106787;1269;25325;-51
2023/08/24 10:20:18;;;;;;;;;;;;;;;34.28;47.85;101532.77;106838;1259;25455;-52
2023/08/24 10:22:45;;;;;;;;;;;;;;;34.31;47.69;101540.85;106766;1268;25302;-51
2023/08/24 10:25:12;;;;;;;;;;;;;;;34.34;47.45;101548.48;106783;1263;25379;-50
2023/08/24 10:27:43;;;;;;;;;;;;;;;34.35;47.45;101548.21;106653;1266;25312;-51
2023/08/24 10:30:11;;;;;;;;;;;;;;;34.32;47.11;101548.38;106824;1255;25408;-50
2023/08/24 10:32:39;;;;;;;;;;;;;;;34.25;46.76;101546.55;106822;1267;25343;-52
2023/08/24 10:35:06;;;;;;;;;;;;;;;34.17;46.92;101544.81;106808;1269;25315;-51
2023/08/24 10:37:36;;;;;;;;;;;;;;;34.06;47.03;101542.73;106811;1256;25383;-51
2023/08/24 10:40:04;;;;;;;;;;;;;;;33.94;47.41;101536.48;106344;1262;25445;-51
2023/08/24 10:42:46;;;;;;;;;;;;;;;33.81;47.37;101529.15;106873;1256;25374;-51
2023/08/24 10:45:13;;;;;;;;;;;;;;;33.67;47.34;101533.82;106823;1259;25407;-51
2023/08/24 10:47:43;;;;;;;;;;;;;;;33.53;47.79;101541.77;106872;1268;25427;-51
2023/08/24 10:50:11;;;;;;;;;;;;;;;33.41;48.48;101543.95;106654;1268;25325;-51
2023/08/24 10:52:39;;;;;;;;;;;;;;;33.29;48.86;101540.52;106463;1277;25316;-51
2023/08/24 10:55:21;;;;;;;;;;;;;;;33.18;48.79;101541.40;106753;1270;25329;-51
2023/08/24 10:57:55;;;;;;;;;;;;;;;33.05;48.78;101536.12;106856;1258;25344;-51
2023/08/24 11:00:25;;;;;;;;;;;;;;;32.96;49.24;101528.11;106759;1256;25315;-51
2023/08/24 11:02:52;;;;;;;;;;;;;;;32.87;49.26;101525.78;106775;1259;23848;-50
2023/08/24 11:05:30;;;;;;;;;;;;;;;32.79;49.36;101523.50;106887;1264;25357;-51
2023/08/24 11:07:59;;;;;;;;;;;;;;;32.74;50.21;101525.48;106764;1257;25321;-51
2023/08/24 11:10:46;;;;;;;;;;;;;;;32.69;50.87;101524.21;106850;1265;25344;-51
2023/08/24 11:13:19;;;;;;;;;;;;;;;32.63;51.08;101532.55;106763;1265;25335;-51
2023/08/24 11:15:46;;;;;;;;;;;;;;;32.58;51.21;101521.94;106836;1265;22608;-51
2023/08/24 11:18:13;;;;;;;;;;;;;;;32.55;50.99;101516.39;106792;1268;25396;-52
2023/08/24 11:20:46;;;;;;;;;;;;;;;32.51;51.03;101517.71;106774;1265;22507;-51
2023/08/24 11:23:15;;;;;;;;;;;;;;;32.48;50.94;101527.71;106768;1267;25477;-51
2023/08/24 11:25:42;;;;;;;;;;;;;;;32.45;51.19;101531.41;106886;1267;25315;-51
2023/08/24 11:28:08;;;;;;;;;;;;;;;32.42;51.45;101526.89;106861;1272;25293;-51
2023/08/24 11:30:36;;;;;;;;;;;;;;;32.39;51.70;101521.77;106761;1260;25378;-51
2023/08/24 11:33:03;;;;;;;;;;;;;;;32.37;51.75;101527.35;106822;1266;25392;-51
2023/08/24 11:35:34;;;;;;;;;;;;;;;32.35;52.16;101521.98;106850;1267;24192;-51
2023/08/24 11:38:02;;;;;;;;;;;;;;;32.33;52.15;101520.98;106965;1263;25372;-51
2023/08/24 11:40:29;;;;;;;;;;;;;;;32.31;52.06;101517.39;106659;1269;25274;-52
2023/08/24 11:42:56;;;;;;;;;;;;;;;32.31;52.05;101508.75;106889;1262;24182;-51
2023/08/24 11:45:23;;;;;;;;;;;;;;;32.30;52.11;101500.55;106851;1262;25326;-51
2023/08/24 11:47:50;;;;;;;;;;;;;;;32.31;52.13;101496.73;106752;1262;25366;-51
2023/08/24 11:50:17;;;;;;;;;;;;;;;32.30;52.07;101485.64;106797;1263;25393;-52
2023/08/24 11:52:44;;;;;;;;;;;;;;;32.30;52.12;101473.83;106769;1264;25380;-51
2023/08/24 11:55:11;;;;;;;;;;;;;;;32.29;52.20;101474.30;106846;1266;25393;-51
2023/08/24 11:57:38;;;;;;;;;;;;;;;32.28;52.17;101476.23;106849;1269;25353;-51
2023/08/24 12:00:06;;;;;;;;;;;;;;;32.26;52.12;101476.95;106802;1267;25344;-52
2023/08/24 12:02:33;;;;;;;;;;;;;;;32.25;52.02;101479.07;106664;1266;25318;-53
2023/08/24 12:04:59;;;;;;;;;;;;;;;32.23;51.84;101477.65;106547;1270;22639;-51
2023/08/24 12:07:27;;;;;;;;;;;;;;;32.22;52.01;101479.92;106571;1262;25312;-51
2023/08/24 12:10:01;;;;;;;;;;;;;;;32.20;52.44;101474.48;106603;1271;25313;-51
2023/08/24 12:12:28;;;;;;;;;;;;;;;32.19;52.58;101470.42;106686;1275;25351;-51
2023/08/24 12:14:55;;;;;;;;;;;;;;;32.19;52.50;101468.89;106603;1270;25390;-51
2023/08/24 12:17:22;;;;;;;;;;;;;;;32.18;52.42;101462.18;106642;1269;25379;-51
2023/08/24 12:20:04;;;;;;;;;;;;;;;32.17;52.39;101456.39;106513;1268;25344;-51
2023/08/24 12:22:32;;;;;;;;;;;;;;;32.16;52.40;101449.77;106588;1262;22513;-51
2023/08/24 12:24:59;;;;;;;;;;;;;;;32.16;52.34;101440.68;106603;1271;25296;-51
2023/08/24 12:27:26;;;;;;;;;;;;;;;32.15;52.71;101432.84;106615;1263;25309;-52
2023/08/24 12:29:53;;;;;;;;;;;;;;;32.14;52.80;101415.70;106699;1259;22996;-52